createdAt,value
2023-01-10T00:00:34.518Z,2.78
2023-01-10T00:03:04.860Z,2.60
2023-01-10T00:05:31.602Z,2.25
2023-01-10T00:07:59.287Z,2.42
2023-01-10T00:10:25.619Z,2.35
2023-01-10T00:13:10.634Z,2.10
2023-01-10T00:15:37.095Z,2.15
2023-01-10T00:18:03.595Z,2.88
2023-01-10T00:20:30.052Z,2.70
2023-01-10T00:22:56.304Z,2.63
2023-01-10T00:25:22.554Z,2.78
2023-01-10T00:27:50.522Z,2.40
2023-01-10T00:30:16.939Z,2.92
2023-01-10T00:32:44.020Z,2.65
2023-01-10T00:35:11.354Z,2.72
2023-01-10T00:37:38.076Z,2.20
2023-01-10T00:40:07.715Z,2.50
2023-01-10T00:42:52.899Z,2.67
2023-01-10T00:45:19.869Z,2.58
2023-01-10T00:47:46.213Z,2.67
2023-01-10T00:50:12.615Z,3.33
2023-01-10T00:52:40.372Z,2.67
2023-01-10T00:55:07.024Z,3.03
2023-01-10T00:57:33.364Z,3.17
2023-01-10T00:59:59.661Z,2.50
2023-01-10T01:02:26.003Z,2.55
2023-01-10T01:04:52.397Z,2.95
2023-01-10T01:07:18.663Z,1.98
2023-01-10T01:10:03.882Z,2.55
2023-01-10T01:12:30.148Z,2.40
2023-01-10T01:14:56.470Z,2.20
2023-01-10T01:17:22.795Z,2.67
2023-01-10T01:19:49.011Z,2.72
2023-01-10T01:22:15.227Z,2.50
2023-01-10T01:24:41.722Z,3.53
2023-01-10T01:27:07.986Z,2.45
2023-01-10T01:29:42.929Z,2.75
2023-01-10T01:32:09.969Z,2.40
2023-01-10T01:34:36.458Z,2.65
2023-01-10T01:37:02.674Z,2.20
2023-01-10T01:39:29.035Z,2.45
2023-01-10T01:41:58.359Z,2.92
2023-01-10T01:44:29.308Z,2.60
2023-01-10T01:46:55.558Z,2.35
2023-01-10T01:49:24.222Z,2.70
2023-01-10T01:51:52.442Z,3.00
2023-01-10T01:54:19.204Z,2.45
2023-01-10T01:56:48.706Z,2.30
2023-01-10T01:59:18.177Z,1.98
2023-01-10T02:01:46.595Z,2.63
2023-01-10T02:04:21.485Z,1.85
2023-01-10T02:06:48.976Z,3.03
2023-01-10T02:09:18.021Z,2.08
2023-01-10T02:11:44.524Z,2.35
2023-01-10T02:14:11.117Z,1.80
2023-01-10T02:16:37.476Z,1.63
2023-01-10T02:19:05.566Z,2.80
2023-01-10T02:21:55.729Z,2.35
2023-01-10T02:24:39.068Z,2.58
2023-01-10T02:27:12.579Z,2.65
2023-01-10T02:29:57.414Z,1.85
2023-01-10T02:32:42.199Z,2.22
2023-01-10T02:35:20.439Z,2.10
2023-01-10T02:38:13.179Z,1.92
2023-01-10T02:40:46.915Z,2.00
2023-01-10T02:43:19.241Z,2.75
2023-01-10T02:45:51.013Z,1.77
2023-01-10T02:48:17.943Z,2.17
2023-01-10T02:50:44.509Z,1.67
2023-01-10T02:53:14.812Z,2.20
2023-01-10T02:55:47.102Z,2.45
2023-01-10T02:58:16.559Z,1.80
2023-01-10T03:00:51.773Z,2.47
2023-01-10T03:03:27.591Z,2.70
2023-01-10T03:05:53.866Z,1.77
2023-01-10T03:08:34.039Z,1.88
2023-01-10T03:11:05.371Z,2.22
2023-01-10T03:13:37.686Z,2.35
2023-01-10T03:16:06.815Z,2.90
2023-01-10T03:18:34.893Z,2.45
2023-01-10T03:21:03.785Z,2.85
2023-01-10T03:23:32.544Z,1.95
2023-01-10T03:28:29.448Z,2.72
2023-01-10T03:30:58.557Z,2.33
2023-01-10T03:33:27.282Z,3.13
2023-01-10T03:38:32.548Z,3.00
2023-01-10T03:41:06.110Z,3.33
2023-01-10T03:44:05.902Z,2.53
2023-01-10T03:46:52.240Z,3.50
2023-01-10T03:49:20.372Z,2.80
2023-01-10T03:51:47.491Z,2.78
2023-01-10T03:54:15.622Z,3.20
2023-01-10T03:56:52.001Z,3.05
2023-01-10T03:59:20.524Z,3.28
2023-01-10T04:01:47.016Z,3.28
2023-01-10T04:04:13.411Z,3.50
2023-01-10T04:06:39.804Z,4.03
2023-01-10T04:09:06.146Z,3.20
2023-01-10T04:11:32.810Z,4.18
2023-01-10T04:13:59.138Z,3.88
2023-01-10T04:16:25.530Z,3.75
2023-01-10T04:18:51.825Z,4.22
2023-01-10T04:21:18.313Z,4.25
2023-01-10T04:23:44.601Z,4.25
2023-01-10T04:26:11.607Z,3.40
2023-01-10T04:28:37.957Z,5.43
2023-01-10T04:31:04.401Z,4.70
2023-01-10T04:33:30.784Z,3.92
2023-01-10T04:35:57.081Z,4.28
2023-01-10T04:38:23.355Z,4.05
2023-01-10T04:40:53.874Z,4.70
2023-01-10T04:43:20.387Z,4.03
2023-01-10T04:45:46.636Z,3.63
2023-01-10T04:48:12.923Z,4.70
2023-01-10T04:50:39.257Z,3.95
2023-01-10T04:53:05.556Z,3.63
2023-01-10T04:55:32.606Z,4.47
2023-01-10T04:57:59.285Z,4.00
2023-01-10T05:00:25.520Z,3.67
2023-01-10T05:02:55.912Z,4.30
2023-01-10T05:05:22.248Z,3.55
2023-01-10T05:07:48.580Z,4.03
2023-01-10T05:10:14.968Z,4.05
2023-01-10T05:12:41.328Z,3.60
2023-01-10T05:15:07.903Z,3.63
2023-01-10T05:17:34.162Z,3.63
2023-01-10T05:20:00.600Z,4.00
2023-01-10T05:22:26.899Z,3.20
2023-01-10T05:24:54.647Z,4.40
2023-01-10T05:27:21.168Z,3.53
2023-01-10T05:29:47.417Z,4.57
2023-01-10T05:32:13.774Z,3.85
2023-01-10T05:34:40.175Z,4.15
2023-01-10T05:37:06.545Z,3.70
2023-01-10T05:39:32.875Z,3.83
2023-01-10T05:41:59.185Z,3.25
2023-01-10T05:44:25.424Z,3.63
2023-01-10T05:46:51.743Z,3.45
2023-01-10T05:49:18.107Z,4.07
2023-01-10T05:51:44.400Z,3.95
2023-01-10T05:54:10.695Z,3.35
2023-01-10T05:56:38.975Z,3.80
2023-01-10T05:59:09.820Z,2.70
2023-01-10T06:01:43.522Z,3.33
2023-01-10T06:04:09.844Z,3.65
2023-01-10T06:06:36.143Z,3.92
2023-01-10T06:09:02.561Z,4.15
2023-01-10T06:11:36.287Z,3.70
2023-01-10T06:14:02.911Z,3.38
2023-01-10T06:16:29.189Z,3.50
2023-01-10T06:18:55.447Z,3.60
2023-01-10T06:21:21.736Z,3.90
2023-01-10T06:23:48.039Z,4.63
2023-01-10T06:26:14.319Z,3.60
2023-01-10T06:28:43.343Z,4.43
2023-01-10T06:31:10.071Z,3.95
2023-01-10T06:33:36.413Z,3.28
2023-01-10T06:36:02.851Z,4.13
2023-01-10T06:38:29.110Z,3.58
2023-01-10T06:40:55.361Z,3.95
2023-01-10T06:43:21.749Z,4.03
2023-01-10T06:45:48.052Z,4.50
2023-01-10T06:48:14.391Z,3.88
2023-01-10T06:50:40.649Z,3.72
2023-01-10T06:53:07.088Z,3.90
2023-01-10T06:55:33.404Z,3.38
2023-01-10T06:58:04.541Z,3.33
2023-01-10T07:00:31.034Z,4.90
2023-01-10T07:03:01.291Z,4.88
2023-01-10T07:05:28.956Z,4.38
2023-01-10T07:07:55.698Z,4.40
2023-01-10T07:10:21.997Z,3.53
2023-01-10T07:12:48.371Z,3.35
2023-01-10T07:15:14.680Z,4.22
2023-01-10T07:17:41.005Z,3.47
2023-01-10T07:20:07.848Z,3.00
2023-01-10T07:22:34.189Z,4.18
2023-01-10T07:25:00.485Z,3.60
2023-01-10T07:27:26.914Z,3.88
2023-01-10T07:29:53.248Z,3.33
2023-01-10T07:32:19.493Z,4.43
2023-01-10T07:34:45.813Z,4.00
2023-01-10T07:37:12.024Z,3.40
2023-01-10T07:39:38.294Z,3.97
2023-01-10T07:42:04.900Z,4.30
2023-01-10T07:44:32.284Z,4.82
2023-01-10T07:46:58.536Z,3.10
2023-01-10T07:49:24.844Z,4.07
2023-01-10T07:51:51.139Z,3.20
2023-01-10T07:54:17.413Z,3.20
2023-01-10T07:56:43.763Z,3.53
2023-01-10T07:59:09.979Z,3.92
2023-01-10T08:01:36.187Z,3.35
2023-01-10T08:04:02.630Z,3.83
2023-01-10T08:06:28.845Z,3.85
2023-01-10T08:08:55.044Z,3.65
2023-01-10T08:11:21.376Z,3.47
2023-01-10T08:13:47.716Z,3.75
2023-01-10T08:16:15.551Z,3.53
2023-01-10T08:18:44.820Z,3.80
2023-01-10T08:21:11.085Z,3.72
2023-01-10T08:23:37.617Z,3.10
2023-01-10T08:26:04.185Z,4.78
2023-01-10T08:28:30.598Z,4.55
2023-01-10T08:30:57.339Z,3.47
2023-01-10T08:33:24.171Z,2.75
2023-01-10T08:35:51.069Z,3.88
2023-01-10T08:38:17.344Z,3.30
2023-01-10T08:40:43.932Z,3.55
2023-01-10T08:43:12.360Z,3.58
2023-01-10T08:45:38.781Z,3.60
2023-01-10T08:48:05.683Z,3.65
2023-01-10T08:50:32.178Z,3.40
2023-01-10T08:52:59.377Z,3.30
2023-01-10T08:55:26.321Z,2.95
2023-01-10T08:57:52.635Z,4.85
2023-01-10T09:00:19.052Z,3.47
2023-01-10T09:02:45.440Z,3.97
2023-01-10T09:05:22.284Z,2.83
2023-01-10T09:07:53.087Z,4.22
2023-01-10T09:10:19.485Z,3.60
2023-01-10T09:12:55.028Z,3.08
2023-01-10T09:15:25.354Z,3.63
2023-01-10T09:17:55.660Z,3.70
2023-01-10T09:20:22.736Z,4.55
2023-01-10T09:22:49.043Z,3.83
2023-01-10T09:25:15.432Z,3.15
2023-01-10T09:27:41.718Z,3.70
2023-01-10T09:30:08.302Z,2.90
2023-01-10T09:32:34.628Z,3.70
2023-01-10T09:35:00.911Z,3.38
2023-01-10T09:37:27.124Z,4.30
2023-01-10T09:39:53.486Z,4.22
2023-01-10T09:42:28.298Z,3.55
2023-01-10T09:45:06.832Z,3.53
2023-01-10T09:47:54.336Z,3.67
2023-01-10T09:50:27.946Z,3.90
2023-01-10T09:52:57.232Z,4.15
2023-01-10T09:55:26.423Z,4.25
2023-01-10T09:57:54.870Z,4.18
2023-01-10T10:00:23.045Z,3.35
2023-01-10T10:02:50.890Z,3.78
2023-01-10T10:05:25.090Z,3.30
2023-01-10T10:07:56.054Z,4.63
2023-01-10T10:10:26.983Z,3.38
2023-01-10T10:12:59.245Z,3.67
2023-01-10T10:15:28.968Z,3.15
2023-01-10T10:18:13.805Z,3.47
2023-01-10T10:20:48.000Z,3.63
2023-01-10T10:23:17.083Z,3.55
2023-01-10T10:26:02.521Z,4.03
2023-01-10T10:28:53.860Z,4.30
2023-01-10T10:31:21.986Z,3.70
2023-01-10T10:33:51.046Z,3.90
2023-01-10T10:36:32.749Z,4.22
2023-01-10T10:39:01.071Z,3.75
2023-01-10T10:41:33.233Z,3.75
2023-01-10T10:44:04.141Z,3.80
2023-01-10T10:46:31.383Z,3.55
2023-01-10T10:48:59.228Z,3.30
2023-01-10T10:51:34.119Z,3.37
2023-01-10T10:54:01.502Z,3.80
2023-01-10T10:56:27.834Z,3.13
2023-01-10T10:58:56.222Z,3.83
2023-01-10T11:01:25.452Z,3.88
2023-01-10T11:04:00.710Z,3.38
2023-01-10T11:06:28.504Z,3.42
2023-01-10T11:08:56.874Z,2.93
2023-01-10T11:11:29.406Z,3.25
2023-01-10T11:13:57.209Z,3.35
2023-01-10T11:16:33.851Z,2.90
2023-01-10T11:19:10.672Z,2.92
2023-01-10T11:21:38.749Z,3.72
2023-01-10T11:24:05.449Z,3.50
2023-01-10T11:26:36.256Z,2.75
2023-01-10T11:29:17.004Z,3.03
2023-01-10T11:31:43.670Z,3.35
2023-01-10T11:34:24.679Z,2.88
2023-01-10T11:37:02.056Z,3.83
2023-01-10T11:39:29.417Z,3.08
2023-01-10T11:41:58.150Z,3.47
2023-01-10T11:46:53.385Z,2.70
2023-01-10T11:49:24.660Z,3.88
2023-01-10T11:51:51.841Z,3.40
2023-01-10T11:54:25.377Z,2.90
2023-01-10T11:56:57.563Z,3.88
2023-01-10T11:59:24.572Z,3.83
2023-01-10T12:01:56.525Z,2.95
2023-01-10T12:04:23.682Z,3.25
2023-01-10T12:06:52.108Z,2.72
2023-01-10T12:09:37.347Z,3.22
2023-01-10T12:12:04.894Z,2.90
2023-01-10T12:14:31.158Z,3.35
2023-01-10T12:17:02.320Z,4.07
2023-01-10T12:19:29.505Z,3.63
2023-01-10T12:21:59.213Z,3.35
2023-01-10T12:24:28.367Z,4.03
2023-01-10T12:26:55.170Z,3.30
2023-01-10T12:29:23.765Z,3.40
2023-01-10T12:31:50.863Z,4.22
2023-01-10T12:34:20.148Z,3.60
2023-01-10T12:36:46.409Z,3.30
2023-01-10T12:39:16.259Z,3.70
2023-01-10T12:42:01.097Z,3.38
2023-01-10T12:44:36.448Z,3.25
2023-01-10T12:47:13.128Z,3.08
2023-01-10T12:49:53.678Z,2.42
2023-01-10T12:52:45.698Z,2.95
2023-01-10T12:55:34.297Z,3.15
2023-01-10T13:00:32.877Z,3.38
2023-01-10T13:03:09.423Z,3.47
2023-01-10T13:05:35.776Z,3.20
2023-01-10T13:08:11.722Z,4.55
2023-01-10T13:10:40.261Z,2.90
2023-01-10T13:13:13.344Z,2.70
2023-01-10T13:15:45.103Z,3.08
2023-01-10T13:18:27.887Z,3.22
2023-01-10T13:21:08.693Z,3.35
2023-01-10T13:23:38.628Z,2.97
2023-01-10T13:26:08.917Z,3.70
2023-01-10T13:28:40.104Z,2.72
2023-01-10T13:31:26.429Z,3.22
2023-01-10T13:33:54.714Z,4.10
2023-01-10T13:36:29.055Z,3.40
2023-01-10T13:38:59.220Z,2.95
2023-01-10T13:42:03.896Z,3.85
2023-01-10T13:44:30.216Z,3.00
2023-01-10T13:46:56.511Z,2.58
2023-01-10T13:49:27.010Z,3.42
2023-01-10T13:52:11.881Z,3.20
2023-01-10T13:54:38.232Z,2.55
2023-01-10T13:57:24.518Z,3.60
2023-01-10T14:00:19.603Z,2.63
2023-01-10T14:02:46.219Z,2.72
2023-01-10T14:05:17.647Z,3.30
2023-01-10T14:07:43.942Z,3.55
2023-01-10T14:10:19.415Z,2.88
2023-01-10T14:12:50.733Z,3.60
2023-01-10T14:15:22.745Z,2.63
2023-01-10T14:18:12.039Z,3.53
2023-01-10T14:20:39.262Z,3.55
2023-01-10T14:23:07.388Z,3.28
2023-01-10T14:25:35.346Z,4.30
2023-01-10T14:28:02.593Z,2.80
2023-01-10T14:30:33.404Z,2.53
2023-01-10T14:33:08.015Z,2.95
2023-01-10T14:35:37.323Z,3.25
2023-01-10T14:38:04.099Z,3.45
2023-01-10T14:40:43.147Z,2.88
2023-01-10T14:43:12.052Z,2.78
2023-01-10T14:45:40.340Z,3.30
2023-01-10T14:48:27.365Z,2.65
2023-01-10T14:51:06.291Z,3.15
2023-01-10T14:53:32.694Z,2.28
2023-01-10T14:55:59.148Z,3.13
2023-01-10T14:58:25.576Z,2.80
2023-01-10T15:00:53.684Z,3.03
2023-01-10T15:03:21.429Z,4.95
2023-01-10T15:05:49.944Z,3.55
2023-01-10T15:08:20.031Z,2.92
2023-01-10T15:10:47.728Z,2.40
2023-01-10T15:13:15.258Z,2.67
2023-01-10T15:15:43.756Z,2.30
2023-01-10T15:18:22.739Z,3.28
2023-01-10T15:20:49.103Z,2.80
2023-01-10T15:23:15.629Z,2.42
2023-01-10T15:25:42.860Z,2.42
2023-01-10T15:28:14.770Z,3.22
2023-01-10T15:30:41.778Z,3.20
2023-01-10T15:33:19.333Z,3.20
2023-01-10T15:35:45.733Z,3.55
2023-01-10T15:38:14.429Z,2.75
2023-01-10T15:43:10.825Z,2.45
2023-01-10T15:45:39.714Z,2.45
2023-01-10T15:48:22.742Z,3.05
2023-01-10T15:51:04.137Z,2.70
2023-01-10T15:53:48.892Z,2.33
2023-01-10T15:56:17.346Z,2.20
2023-01-10T15:58:43.661Z,1.98
2023-01-10T16:01:13.410Z,2.38
2023-01-10T16:03:45.114Z,2.38
2023-01-10T16:06:29.233Z,2.92
2023-01-10T16:08:56.485Z,2.45
2023-01-10T16:12:04.868Z,2.72
2023-01-10T16:16:57.299Z,2.63
2023-01-10T16:19:23.626Z,1.88
2023-01-10T16:21:51.179Z,1.83
2023-01-10T16:24:20.766Z,1.98
2023-01-10T16:26:47.616Z,2.35
2023-01-10T16:29:14.260Z,3.05
2023-01-10T16:31:40.705Z,2.05
2023-01-10T16:34:07.572Z,1.80
2023-01-10T16:36:33.897Z,2.35
2023-01-10T16:39:05.488Z,2.30
2023-01-10T16:41:50.585Z,2.72
2023-01-10T16:44:19.096Z,2.55
2023-01-10T16:46:45.618Z,1.58
2023-01-10T16:49:11.980Z,2.60
2023-01-10T16:51:38.961Z,1.80
2023-01-10T16:54:05.433Z,2.10
2023-01-10T16:56:31.743Z,2.38
2023-01-10T16:58:58.020Z,2.20
2023-01-10T17:01:32.219Z,2.08
2023-01-10T17:03:59.091Z,2.45
2023-01-10T17:06:25.409Z,1.70
2023-01-10T17:08:51.787Z,2.20
2023-01-10T17:11:25.612Z,1.65
2023-01-10T17:13:52.019Z,1.60
2023-01-10T17:16:19.756Z,2.10
2023-01-10T17:18:46.445Z,2.00
2023-01-10T17:21:17.471Z,2.00
2023-01-10T17:23:44.500Z,2.10
2023-01-10T17:26:11.749Z,2.25
2023-01-10T17:28:38.359Z,2.10
2023-01-10T17:31:04.764Z,2.00
2023-01-10T17:33:31.134Z,1.60
2023-01-10T17:35:57.438Z,2.22
2023-01-10T17:38:25.365Z,2.28
2023-01-10T17:40:52.069Z,1.92
2023-01-10T17:43:19.287Z,1.50
2023-01-10T17:45:47.137Z,1.48
2023-01-10T17:48:15.927Z,1.70
2023-01-10T17:50:42.961Z,1.40
2023-01-10T17:53:09.281Z,1.52
2023-01-10T17:55:35.680Z,1.60
2023-01-10T17:58:03.620Z,1.40
2023-01-10T18:00:30.317Z,1.60
2023-01-10T18:02:56.675Z,1.52
2023-01-10T18:05:23.134Z,1.55
2023-01-10T18:07:49.381Z,1.60
2023-01-10T18:10:15.714Z,1.70
2023-01-10T18:12:43.272Z,1.45
2023-01-10T18:15:09.769Z,1.40
2023-01-10T18:17:36.035Z,1.80
2023-01-10T18:20:02.305Z,1.50
2023-01-10T18:22:47.345Z,1.65
2023-01-10T18:25:15.514Z,1.75
2023-01-10T18:27:42.485Z,1.75
2023-01-10T18:30:09.110Z,1.70
2023-01-10T18:32:35.609Z,1.70
2023-01-10T18:35:01.951Z,2.03
2023-01-10T18:37:28.308Z,2.30
2023-01-10T18:39:54.786Z,1.90
2023-01-10T18:42:22.528Z,2.00
2023-01-10T18:44:48.807Z,1.92
2023-01-10T18:47:15.139Z,2.22
2023-01-10T18:49:41.478Z,2.28
2023-01-10T18:52:07.702Z,2.10
2023-01-10T18:54:34.629Z,1.90
2023-01-10T18:57:00.866Z,1.83
2023-01-10T18:59:27.150Z,2.17
2023-01-10T19:01:53.622Z,1.75
2023-01-10T19:04:19.997Z,1.90
2023-01-10T19:06:46.488Z,1.95
2023-01-10T19:09:12.963Z,1.92
2023-01-10T19:11:39.378Z,2.03
2023-01-10T19:14:05.730Z,1.67
2023-01-10T19:16:32.402Z,1.80
2023-01-10T19:19:03.892Z,1.50
2023-01-10T19:21:31.446Z,1.83
2023-01-10T19:24:00.740Z,1.75
2023-01-10T19:26:27.157Z,1.80
2023-01-10T19:28:53.577Z,2.17
2023-01-10T19:31:21.676Z,1.83
2023-01-10T19:33:49.893Z,1.92
2023-01-10T19:36:16.927Z,1.90
2023-01-10T19:38:43.472Z,1.63
2023-01-10T19:41:10.105Z,1.65
2023-01-10T19:43:36.823Z,1.50
2023-01-10T19:46:07.286Z,1.50
2023-01-10T19:48:37.866Z,1.80
2023-01-10T19:51:05.122Z,2.05
2023-01-10T19:53:33.490Z,1.80
2023-01-10T19:56:02.050Z,1.48
2023-01-10T19:58:28.569Z,1.67
2023-01-10T20:00:55.009Z,1.58
2023-01-10T20:03:21.269Z,2.85
2023-01-10T20:05:47.637Z,1.90
2023-01-10T20:08:13.917Z,1.67
2023-01-10T20:10:40.295Z,2.10
2023-01-10T20:13:07.905Z,1.92
2023-01-10T20:18:01.463Z,1.80
2023-01-10T20:20:27.736Z,1.90
2023-01-10T20:22:54.763Z,1.60
2023-01-10T20:25:21.032Z,1.65
2023-01-10T20:27:47.616Z,1.85
2023-01-10T20:30:14.157Z,2.08
2023-01-10T20:32:40.805Z,1.88
2023-01-10T20:35:07.157Z,1.65
2023-01-10T20:37:33.561Z,1.80
2023-01-10T20:39:59.898Z,2.00
2023-01-10T20:42:26.375Z,1.52
2023-01-10T20:44:52.658Z,1.85
2023-01-10T20:47:18.973Z,2.03
2023-01-10T20:49:45.326Z,1.80
2023-01-10T20:52:11.723Z,1.60
2023-01-10T20:54:38.730Z,1.90
2023-01-10T20:57:04.965Z,1.63
2023-01-10T20:59:32.504Z,1.70
2023-01-10T21:02:00.760Z,1.90
2023-01-10T21:04:27.137Z,1.73
2023-01-10T21:06:54.025Z,1.90
2023-01-10T21:09:20.405Z,1.67
2023-01-10T21:11:59.934Z,2.00
2023-01-10T21:14:30.591Z,1.58
2023-01-10T21:16:57.019Z,1.70
2023-01-10T21:19:23.295Z,1.80
2023-01-10T21:21:49.610Z,1.98
2023-01-10T21:24:15.940Z,1.95
2023-01-10T21:26:42.294Z,2.13
2023-01-10T21:29:08.652Z,2.20
2023-01-10T21:31:35.006Z,2.00
2023-01-10T21:34:01.299Z,2.33
2023-01-10T21:36:27.665Z,2.30
2023-01-10T21:38:54.174Z,2.13
2023-01-10T21:41:39.038Z,1.88
2023-01-10T21:44:05.531Z,1.88
2023-01-10T21:46:31.874Z,2.28
2023-01-10T21:48:58.238Z,1.95
2023-01-10T21:51:24.798Z,2.47
2023-01-10T21:53:51.094Z,2.35
2023-01-10T21:56:17.400Z,2.53
2023-01-10T21:58:43.824Z,2.72
2023-01-10T22:01:10.089Z,2.28
2023-01-10T22:03:36.408Z,2.60
2023-01-10T22:06:02.751Z,2.38
2023-01-10T22:08:28.999Z,2.72
2023-01-10T22:10:56.309Z,2.70
2023-01-10T22:13:24.889Z,2.38
2023-01-10T22:15:56.832Z,2.38
2023-01-10T22:18:23.148Z,2.15
2023-01-10T22:20:49.437Z,2.53
2023-01-10T22:23:15.792Z,2.15
2023-01-10T22:25:42.074Z,1.88
2023-01-10T22:28:08.358Z,1.90
2023-01-10T22:30:34.752Z,2.33
2023-01-10T22:33:01.847Z,2.72
2023-01-10T22:35:28.229Z,2.20
2023-01-10T22:37:57.300Z,1.90
2023-01-10T22:40:23.612Z,2.50
2023-01-10T22:42:52.337Z,2.67
2023-01-10T22:47:47.600Z,2.42
2023-01-10T22:50:13.905Z,2.47
2023-01-10T22:52:40.176Z,2.75
2023-01-10T22:55:06.611Z,2.78
2023-01-10T22:57:33.189Z,2.63
2023-01-10T22:59:59.597Z,2.53
2023-01-10T23:02:27.815Z,2.60
2023-01-10T23:04:55.186Z,2.40
2023-01-10T23:07:21.669Z,2.53
2023-01-10T23:09:47.961Z,2.63
2023-01-10T23:12:14.189Z,2.60
2023-01-10T23:14:40.682Z,2.08
2023-01-10T23:17:06.949Z,2.45
2023-01-10T23:19:33.213Z,2.70
2023-01-10T23:21:59.459Z,2.60
2023-01-10T23:24:25.689Z,2.90
2023-01-10T23:26:51.895Z,2.67
2023-01-10T23:29:18.134Z,2.25
2023-01-10T23:31:49.461Z,2.28
2023-01-10T23:34:16.354Z,2.25
2023-01-10T23:36:42.899Z,2.92
2023-01-10T23:39:09.172Z,2.13
2023-01-10T23:41:35.447Z,2.42
2023-01-10T23:44:01.773Z,2.53
2023-01-10T23:46:28.003Z,2.72
2023-01-10T23:48:54.224Z,3.03
2023-01-10T23:51:20.630Z,2.20
2023-01-10T23:53:46.871Z,2.28
2023-01-10T23:56:13.853Z,2.30
2023-01-10T23:58:40.449Z,1.90
